Baltic Leader — 3EEX6 — position and weather

sailwx.info

Track history (hours):
 
Tides and Currents Weather Stations Pressure Air Temp Water Temp Dewpoint Dewpoint Depression Visibility Wind Speed Wind Dir Waves Ship Positions

Baltic Leader

Last reported at 2017-Nov-10 13:41 UTC. Time now 2017-Nov-20 13:56 UTC.
Position N 38°03' W 121°31'.
Warning: this ship's position is 10 days out of date.

Length 190 m; draft 8.1 m.

Type: Cargo ship. MMSI: 355323000.

Date/timePositionNaut miles runAvg speedWind from/ knotsBaromVisibWave heightAir tempDewpointWater temp
2017-Nov-10 13:41N 38°03' W 121°31'14 7.0
2017-Nov-10 11:38N 38°01' W 121°49'1 7.7
2017-Nov-10 11:28N 38°02' W 121°51'3 5.5
2017-Nov-10 11:00N 38°03' W 121°54'9 8.2
2017-Nov-10 09:54N 38°03' W 122°05'3 6.8
2017-Nov-10 09:29N 38°02' W 122°08'4 8.5
2017-Nov-10 09:00N 38°04' W 122°13'5 9.9
2017-Nov-10 08:30N 38°03' W 122°19'510.2
2017-Nov-10 08:00N 38°00' W 122°25'5 9.4
2017-Nov-10 07:30N 37°56' W 122°27'5 9.9
2017-Nov-10 07:00N 37°51' W 122°25'3 5.1
2017-Nov-10 06:30N 37°49' W 122°26'4 7.4
2017-Nov-10 06:00N 37°48' W 122°31'5 9.1
2017-Nov-10 05:30N 37°46' W 122°36'4 9.0
2017-Nov-10 05:00N 37°44' W 122°41'3 6.7
2017-Nov-10 04:30N 37°42' W 122°44'3 6.2
2017-Nov-10 04:00N 37°40' W 122°47'4 8.9
2017-Nov-10 03:30N 37°38' W 122°52'4 8.5
2017-Nov-10 03:00N 37°35' W 122°57'4 8.6
2017-Nov-10 02:30N 37°33' W 123°01'4 8.8
2017-Nov-10 02:00N 37°31' W 123°06'5 9.1
2017-Nov-10 01:27N 37°29' W 123°12'26 8.0
2017-Nov-09 22:13N 37°34' W 123°44'311.9
2017-Nov-09 21:56N 37°35' W 123°48'512.0
2017-Nov-09 21:30N 37°35' W 123°54'1411.9
2017-Nov-09 20:21N 37°37' W 124°12'  
Track history (hours):
 
Tides and Currents Weather Stations Pressure Air Temp Water Temp Dewpoint Dewpoint Depression Visibility Wind Speed Wind Dir Waves Ship Positions

Baltic Leader

Last reported at 2017-Nov-10 13:41 UTC. Time now 2017-Nov-20 13:56 UTC.
Position N 38°03' W 121°31'.
Warning: this ship's position is 10 days out of date.

Length 190 m; draft 8.1 m.

Type: Cargo ship. MMSI: 355323000.

Date/timePositionNaut miles runAvg speedWind from/ knotsBaromVisibWave heightAir tempDewpointWater temp
2017-Nov-10 13:41N 38°03' W 121°31'14 7.0
2017-Nov-10 11:38N 38°01' W 121°49'1 7.7
2017-Nov-10 11:28N 38°02' W 121°51'3 5.5
2017-Nov-10 11:00N 38°03' W 121°54'9 8.2
2017-Nov-10 09:54N 38°03' W 122°05'3 6.8
2017-Nov-10 09:29N 38°02' W 122°08'4 8.5
2017-Nov-10 09:00N 38°04' W 122°13'5 9.9
2017-Nov-10 08:30N 38°03' W 122°19'510.2
2017-Nov-10 08:00N 38°00' W 122°25'5 9.4
2017-Nov-10 07:30N 37°56' W 122°27'5 9.9
2017-Nov-10 07:00N 37°51' W 122°25'3 5.1
2017-Nov-10 06:30N 37°49' W 122°26'4 7.4
2017-Nov-10 06:00N 37°48' W 122°31'5 9.1
2017-Nov-10 05:30N 37°46' W 122°36'4 9.0
2017-Nov-10 05:00N 37°44' W 122°41'3 6.7
2017-Nov-10 04:30N 37°42' W 122°44'3 6.2
2017-Nov-10 04:00N 37°40' W 122°47'4 8.9
2017-Nov-10 03:30N 37°38' W 122°52'4 8.5
2017-Nov-10 03:00N 37°35' W 122°57'4 8.6
2017-Nov-10 02:30N 37°33' W 123°01'4 8.8
2017-Nov-10 02:00N 37°31' W 123°06'5 9.1
2017-Nov-10 01:27N 37°29' W 123°12'26 8.0
2017-Nov-09 22:13N 37°34' W 123°44'311.9
2017-Nov-09 21:56N 37°35' W 123°48'512.0
2017-Nov-09 21:30N 37°35' W 123°54'1411.9
2017-Nov-09 20:21N 37°37' W 124°12'  

Dump ship's entire track history